< < Back
Terminal Aerodrome Forecast


Current Version              Previous Versions:   1  2  3  4  5  6  7  8  9  

Terminal Aerodrome Forecast

196
FTUS42 KGSP 252320
TAFAND
TAF
KAND 252320Z 2600/2624 22004KT P6SM SKC
     FM260300 28003KT P6SM SKC
     FM261600 27007KT P6SM SKC=

Latest METAR

711
SAUS70 KWBC 260200 RRA
MTRAND
METAR KAND 260156Z AUTO 00000KT 10SM CLR 13/10 A2998 RMK AO2 SLP150
T01280100


USA.gov is the U.S. government's official web portal to all federal, state and local government web resources and services.